Chie Maru No.10 — JD2376 — position and weather

sailwx.info

Track history (hours):
 
Tides and Currents Weather Stations Pressure Air Temp Water Temp Dewpoint Dewpoint Depression Visibility Wind Speed Wind Dir Waves Ship Positions

Chie Maru No.10

Last reported at 2015-Jun-30 10:12 UTC. Time now 2015-Jul-01 16:55 UTC.
Position N 35°02' E 139°30'.

Length 72 m; draft 4.8 m.

Type: Ship. MMSI: 431000147.

Date/timePositionNaut miles runAvg speedWind from/ knotsBaromVisibWave heightAir tempDewpointWater temp
2015-Jun-30 10:12N 35°02' E 139°30'711.8
2015-Jun-30 09:34N 35°05' E 139°38'1211.4
2015-Jun-30 08:33N 35°15' E 139°46'1110.9
2015-Jun-30 07:33N 35°26' E 139°44'6 6.2
2015-Jun-30 06:34N 35°32' E 139°46'0 0.0
2015-Jun-30 05:33N 35°32' E 139°46'0 0.0
2015-Jun-30 04:33N 35°32' E 139°46'0 0.0
2015-Jun-30 03:33N 35°32' E 139°46'1 1.1
2015-Jun-30 02:34N 35°31' E 139°46'6 6.2
2015-Jun-30 01:34N 35°25' E 139°42'2 2.4
2015-Jun-30 00:34N 35°24' E 139°40'0 0.2
2015-Jun-29 23:33N 35°24' E 139°39'4 4.1
2015-Jun-29 22:33N 35°22' E 139°44'0 0.0
2015-Jun-29 21:33N 35°22' E 139°44'0 0.0
2015-Jun-29 20:33N 35°22' E 139°44'0 0.1
2015-Jun-29 19:33N 35°22' E 139°44'1 0.7
2015-Jun-29 18:33N 35°21' E 139°44'1211.9
2015-Jun-29 17:33N 35°10' E 139°46'1413.4
2015-Jun-29 16:33N 34°56' E 139°45'2210.8
2015-Jun-29 14:33N 35°00' E 140°11'3912.6
2015-Jun-29 11:29N 35°28' E 140°43'1312.4
2015-Jun-29 10:26N 35°39' E 140°53'17 0.4
2015-Jun-27 12:31N 35°24' E 140°41'1212.5
2015-Jun-27 11:33N 35°15' E 140°32'1312.9
2015-Jun-27 10:32N 35°04' E 140°21'1212.3
2015-Jun-27 09:33N 34°58' E 140°09'2110.7
2015-Jun-27 07:32N 34°56' E 139°43'1010.4
2015-Jun-27 06:33N 35°06' E 139°45'1111.3
2015-Jun-27 05:33N 35°17' E 139°45'5 4.7
2015-Jun-27 04:33N 35°22' E 139°44'4 4.2
2015-Jun-27 03:33N 35°24' E 139°40'0 0.0
2015-Jun-27 02:33N 35°24' E 139°40'0 0.0
2015-Jun-27 01:34N 35°24' E 139°40'0 0.0
2015-Jun-27 00:34N 35°24' E 139°40'0 0.0
2015-Jun-26 23:33N 35°24' E 139°40'4 4.2
2015-Jun-26 22:34N 35°22' E 139°44'0 0.1
2015-Jun-26 21:33N 35°22' E 139°44'0 0.0
2015-Jun-26 20:34N 35°22' E 139°44'0 0.0
2015-Jun-26 19:33N 35°22' E 139°44'0 0.0
2015-Jun-26 18:34N 35°22' E 139°44'1 0.6
2015-Jun-26 17:34N 35°21' E 139°43'1111.2
2015-Jun-26 16:33N 35°10' E 139°47'1312.7
2015-Jun-26 15:32N 34°57' E 139°44'20 9.8
2015-Jun-26 13:26N 34°60' E 140°09'2311.8
2015-Jun-26 11:28N 35°15' E 140°30'1411.7
2015-Jun-26 10:14N 35°26' E 140°41'30 1.0
2015-Jun-25 03:26N 35°56' E 140°42'2 0.6
2015-Jun-25 00:10N 35°55' E 140°41'0 0.0
2015-Jun-24 23:25N 35°55' E 140°41'2 2.4
2015-Jun-24 22:23N 35°57' E 140°42'0 0.0
2015-Jun-24 21:17N 35°57' E 140°42'0 0.0
2015-Jun-24 20:33N 35°57' E 140°42'0 0.0
2015-Jun-24 19:25N 35°57' E 140°42'0 0.0
2015-Jun-24 18:33N 35°57' E 140°42'0 0.0
2015-Jun-24 17:21N 35°57' E 140°42'0 0.0
2015-Jun-24 16:19N 35°57' E 140°42'0 0.0
2015-Jun-24 15:32N 35°57' E 140°42'0 0.0
2015-Jun-24 14:33N 35°57' E 140°42'0 0.1
2015-Jun-24 13:22N 35°57' E 140°42'0 0.1
2015-Jun-24 12:32N 35°57' E 140°42'2 0.6
2015-Jun-24 09:18N 35°59' E 140°43'51 1.4
2015-Jun-22 19:33N 35°30' E 139°50'0 0.0
2015-Jun-22 18:33N 35°30' E 139°50'0 0.1
2015-Jun-22 17:33N 35°30' E 139°50'0 0.0
2015-Jun-22 16:33N 35°30' E 139°50'0 0.0
2015-Jun-22 15:33N 35°30' E 139°50'0 0.0
2015-Jun-22 14:33N 35°30' E 139°50'0 0.0
2015-Jun-22 13:33N 35°30' E 139°50'0 0.0
2015-Jun-22 12:33N 35°30' E 139°50'0 0.0
2015-Jun-22 11:33N 35°30' E 139°50'0 0.0
2015-Jun-22 10:33N 35°30' E 139°50'0 0.0
2015-Jun-22 09:33N 35°30' E 139°50'0 0.0
2015-Jun-22 08:33N 35°30' E 139°50'4 3.7
2015-Jun-22 07:33N 35°33' E 139°54'8 8.0
2015-Jun-22 06:33N 35°41' E 139°56'0 0.0
2015-Jun-22 05:33N 35°41' E 139°56'0 0.0
2015-Jun-22 04:33N 35°41' E 139°56'0 0.2
2015-Jun-22 03:33N 35°40' E 139°57'6 6.1
2015-Jun-22 02:33N 35°34' E 139°55'0 0.1
2015-Jun-22 01:33N 35°34' E 139°55'0 0.0
2015-Jun-22 00:33N 35°34' E 139°55'0 0.1
2015-Jun-21 23:33N 35°34' E 139°55'0 0.0
2015-Jun-21 22:33N 35°34' E 139°55'0 0.0
2015-Jun-21 21:33N 35°34' E 139°55'0 0.0
2015-Jun-21 20:33N 35°34' E 139°55'0 0.0
2015-Jun-21 19:33N 35°34' E 139°55'0 0.0
2015-Jun-21 18:33N 35°34' E 139°55'0 0.0
2015-Jun-21 17:33N 35°34' E 139°55'0 0.0
2015-Jun-21 16:33N 35°34' E 139°55'0 0.0
2015-Jun-21 15:33N 35°34' E 139°55'0 0.0
2015-Jun-21 14:33N 35°34' E 139°55'0 0.1
2015-Jun-21 13:33N 35°34' E 139°55'0 0.1
2015-Jun-21 12:33N 35°34' E 139°55'0 0.0
2015-Jun-21 11:33N 35°34' E 139°55'0 0.0
2015-Jun-21 10:34N 35°34' E 139°55'2 2.4
2015-Jun-21 09:33N 35°32' E 139°53'6 5.9
2015-Jun-21 08:33N 35°31' E 139°46'0 0.0
2015-Jun-21 07:33N 35°31' E 139°46'0 0.0
2015-Jun-21 06:33N 35°31' E 139°46'0 0.0
2015-Jun-21 05:33N 35°31' E 139°46'0 0.0
2015-Jun-21 04:33N 35°31' E 139°46'0 0.0
2015-Jun-21 03:33N 35°31' E 139°46'0 0.0
2015-Jun-21 02:33N 35°31' E 139°46'3 3.3
2015-Jun-21 01:33N 35°29' E 139°49'0 0.0
2015-Jun-21 00:33N 35°29' E 139°49'0 0.0
2015-Jun-20 23:33N 35°29' E 139°49'0 0.0
2015-Jun-20 22:33N 35°29' E 139°49'0 0.0
2015-Jun-20 21:33N 35°29' E 139°49'0 0.0
2015-Jun-20 20:33N 35°29' E 139°49'0 0.0
2015-Jun-20 19:33N 35°29' E 139°49'0 0.0
2015-Jun-20 18:33N 35°29' E 139°49'0 0.0
2015-Jun-20 17:33N 35°29' E 139°49'0 0.0
2015-Jun-20 16:33N 35°29' E 139°49'0 0.0
2015-Jun-20 15:33N 35°29' E 139°49'0 0.0
2015-Jun-20 14:33N 35°29' E 139°49'0 0.0
2015-Jun-20 13:33N 35°29' E 139°49'5 5.1
2015-Jun-20 12:33N 35°24' E 139°46'1211.4
2015-Jun-20 11:33N 35°13' E 139°47'1312.5
2015-Jun-20 10:31N 35°01' E 139°39'  
Track history (hours):
 
Tides and Currents Weather Stations Pressure Air Temp Water Temp Dewpoint Dewpoint Depression Visibility Wind Speed Wind Dir Waves Ship Positions

Chie Maru No.10

Last reported at 2015-Jun-30 10:12 UTC. Time now 2015-Jul-01 16:55 UTC.
Position N 35°02' E 139°30'.

Length 72 m; draft 4.8 m.

Type: Ship. MMSI: 431000147.

Date/timePositionNaut miles runAvg speedWind from/ knotsBaromVisibWave heightAir tempDewpointWater temp
2015-Jun-30 10:12N 35°02' E 139°30'711.8
2015-Jun-30 09:34N 35°05' E 139°38'1211.4
2015-Jun-30 08:33N 35°15' E 139°46'1110.9
2015-Jun-30 07:33N 35°26' E 139°44'6 6.2
2015-Jun-30 06:34N 35°32' E 139°46'0 0.0
2015-Jun-30 05:33N 35°32' E 139°46'0 0.0
2015-Jun-30 04:33N 35°32' E 139°46'0 0.0
2015-Jun-30 03:33N 35°32' E 139°46'1 1.1
2015-Jun-30 02:34N 35°31' E 139°46'6 6.2
2015-Jun-30 01:34N 35°25' E 139°42'2 2.4
2015-Jun-30 00:34N 35°24' E 139°40'0 0.2
2015-Jun-29 23:33N 35°24' E 139°39'4 4.1
2015-Jun-29 22:33N 35°22' E 139°44'0 0.0
2015-Jun-29 21:33N 35°22' E 139°44'0 0.0
2015-Jun-29 20:33N 35°22' E 139°44'0 0.1
2015-Jun-29 19:33N 35°22' E 139°44'1 0.7
2015-Jun-29 18:33N 35°21' E 139°44'1211.9
2015-Jun-29 17:33N 35°10' E 139°46'1413.4
2015-Jun-29 16:33N 34°56' E 139°45'2210.8
2015-Jun-29 14:33N 35°00' E 140°11'3912.6
2015-Jun-29 11:29N 35°28' E 140°43'1312.4
2015-Jun-29 10:26N 35°39' E 140°53'17 0.4
2015-Jun-27 12:31N 35°24' E 140°41'1212.5
2015-Jun-27 11:33N 35°15' E 140°32'1312.9
2015-Jun-27 10:32N 35°04' E 140°21'1212.3
2015-Jun-27 09:33N 34°58' E 140°09'2110.7
2015-Jun-27 07:32N 34°56' E 139°43'1010.4
2015-Jun-27 06:33N 35°06' E 139°45'1111.3
2015-Jun-27 05:33N 35°17' E 139°45'5 4.7
2015-Jun-27 04:33N 35°22' E 139°44'4 4.2
2015-Jun-27 03:33N 35°24' E 139°40'0 0.0
2015-Jun-27 02:33N 35°24' E 139°40'0 0.0
2015-Jun-27 01:34N 35°24' E 139°40'0 0.0
2015-Jun-27 00:34N 35°24' E 139°40'0 0.0
2015-Jun-26 23:33N 35°24' E 139°40'4 4.2
2015-Jun-26 22:34N 35°22' E 139°44'0 0.1
2015-Jun-26 21:33N 35°22' E 139°44'0 0.0
2015-Jun-26 20:34N 35°22' E 139°44'0 0.0
2015-Jun-26 19:33N 35°22' E 139°44'0 0.0
2015-Jun-26 18:34N 35°22' E 139°44'1 0.6
2015-Jun-26 17:34N 35°21' E 139°43'1111.2
2015-Jun-26 16:33N 35°10' E 139°47'1312.7
2015-Jun-26 15:32N 34°57' E 139°44'20 9.8
2015-Jun-26 13:26N 34°60' E 140°09'2311.8
2015-Jun-26 11:28N 35°15' E 140°30'1411.7
2015-Jun-26 10:14N 35°26' E 140°41'30 1.0
2015-Jun-25 03:26N 35°56' E 140°42'2 0.6
2015-Jun-25 00:10N 35°55' E 140°41'0 0.0
2015-Jun-24 23:25N 35°55' E 140°41'2 2.4
2015-Jun-24 22:23N 35°57' E 140°42'0 0.0
2015-Jun-24 21:17N 35°57' E 140°42'0 0.0
2015-Jun-24 20:33N 35°57' E 140°42'0 0.0
2015-Jun-24 19:25N 35°57' E 140°42'0 0.0
2015-Jun-24 18:33N 35°57' E 140°42'0 0.0
2015-Jun-24 17:21N 35°57' E 140°42'0 0.0
2015-Jun-24 16:19N 35°57' E 140°42'0 0.0
2015-Jun-24 15:32N 35°57' E 140°42'0 0.0
2015-Jun-24 14:33N 35°57' E 140°42'0 0.1
2015-Jun-24 13:22N 35°57' E 140°42'0 0.1
2015-Jun-24 12:32N 35°57' E 140°42'2 0.6
2015-Jun-24 09:18N 35°59' E 140°43'51 1.4
2015-Jun-22 19:33N 35°30' E 139°50'0 0.0
2015-Jun-22 18:33N 35°30' E 139°50'0 0.1
2015-Jun-22 17:33N 35°30' E 139°50'0 0.0
2015-Jun-22 16:33N 35°30' E 139°50'0 0.0
2015-Jun-22 15:33N 35°30' E 139°50'0 0.0
2015-Jun-22 14:33N 35°30' E 139°50'0 0.0
2015-Jun-22 13:33N 35°30' E 139°50'0 0.0
2015-Jun-22 12:33N 35°30' E 139°50'0 0.0
2015-Jun-22 11:33N 35°30' E 139°50'0 0.0
2015-Jun-22 10:33N 35°30' E 139°50'0 0.0
2015-Jun-22 09:33N 35°30' E 139°50'0 0.0
2015-Jun-22 08:33N 35°30' E 139°50'4 3.7
2015-Jun-22 07:33N 35°33' E 139°54'8 8.0
2015-Jun-22 06:33N 35°41' E 139°56'0 0.0
2015-Jun-22 05:33N 35°41' E 139°56'0 0.0
2015-Jun-22 04:33N 35°41' E 139°56'0 0.2
2015-Jun-22 03:33N 35°40' E 139°57'6 6.1
2015-Jun-22 02:33N 35°34' E 139°55'0 0.1
2015-Jun-22 01:33N 35°34' E 139°55'0 0.0
2015-Jun-22 00:33N 35°34' E 139°55'0 0.1
2015-Jun-21 23:33N 35°34' E 139°55'0 0.0
2015-Jun-21 22:33N 35°34' E 139°55'0 0.0
2015-Jun-21 21:33N 35°34' E 139°55'0 0.0
2015-Jun-21 20:33N 35°34' E 139°55'0 0.0
2015-Jun-21 19:33N 35°34' E 139°55'0 0.0
2015-Jun-21 18:33N 35°34' E 139°55'0 0.0
2015-Jun-21 17:33N 35°34' E 139°55'0 0.0
2015-Jun-21 16:33N 35°34' E 139°55'0 0.0
2015-Jun-21 15:33N 35°34' E 139°55'0 0.0
2015-Jun-21 14:33N 35°34' E 139°55'0 0.1
2015-Jun-21 13:33N 35°34' E 139°55'0 0.1
2015-Jun-21 12:33N 35°34' E 139°55'0 0.0
2015-Jun-21 11:33N 35°34' E 139°55'0 0.0
2015-Jun-21 10:34N 35°34' E 139°55'2 2.4
2015-Jun-21 09:33N 35°32' E 139°53'6 5.9
2015-Jun-21 08:33N 35°31' E 139°46'0 0.0
2015-Jun-21 07:33N 35°31' E 139°46'0 0.0
2015-Jun-21 06:33N 35°31' E 139°46'0 0.0
2015-Jun-21 05:33N 35°31' E 139°46'0 0.0
2015-Jun-21 04:33N 35°31' E 139°46'0 0.0
2015-Jun-21 03:33N 35°31' E 139°46'0 0.0
2015-Jun-21 02:33N 35°31' E 139°46'3 3.3
2015-Jun-21 01:33N 35°29' E 139°49'0 0.0
2015-Jun-21 00:33N 35°29' E 139°49'0 0.0
2015-Jun-20 23:33N 35°29' E 139°49'0 0.0
2015-Jun-20 22:33N 35°29' E 139°49'0 0.0
2015-Jun-20 21:33N 35°29' E 139°49'0 0.0
2015-Jun-20 20:33N 35°29' E 139°49'0 0.0
2015-Jun-20 19:33N 35°29' E 139°49'0 0.0
2015-Jun-20 18:33N 35°29' E 139°49'0 0.0
2015-Jun-20 17:33N 35°29' E 139°49'0 0.0
2015-Jun-20 16:33N 35°29' E 139°49'0 0.0
2015-Jun-20 15:33N 35°29' E 139°49'0 0.0
2015-Jun-20 14:33N 35°29' E 139°49'0 0.0
2015-Jun-20 13:33N 35°29' E 139°49'5 5.1
2015-Jun-20 12:33N 35°24' E 139°46'1211.4
2015-Jun-20 11:33N 35°13' E 139°47'1312.5
2015-Jun-20 10:31N 35°01' E 139°39'  

Dump ship's entire track history